sensor_id;sensor_type;location;lat;lon;timestamp;temperature;humidity
9984;DHT22;16737;50.932;6.780;2024-02-23T15:50:04;12.10;87.90
9984;DHT22;16737;50.932;6.780;2024-02-23T15:52:33;12.10;89.60
9984;DHT22;16737;50.932;6.780;2024-02-23T15:55:00;12.10;89.40
9984;DHT22;16737;50.932;6.780;2024-02-23T15:57:28;12.10;89.60
9984;DHT22;16737;50.932;6.780;2024-02-23T15:59:55;12.10;89.60
9984;DHT22;16737;50.932;6.780;2024-02-23T16:02:22;12.10;89.70
9984;DHT22;16737;50.932;6.780;2024-02-23T16:04:49;12.10;89.80
9984;DHT22;16737;50.932;6.780;2024-02-23T16:07:16;12.10;89.70
9984;DHT22;16737;50.932;6.780;2024-02-23T16:09:47;12.00;89.60
9984;DHT22;16737;50.932;6.780;2024-02-23T16:12:15;12.00;89.60
9984;DHT22;16737;50.932;6.780;2024-02-23T16:14:42;12.00;89.70
9984;DHT22;16737;50.932;6.780;2024-02-23T16:17:09;12.00;89.80
9984;DHT22;16737;50.932;6.780;2024-02-23T16:19:36;12.00;90.00
9984;DHT22;16737;50.932;6.780;2024-02-23T16:22:04;12.00;90.00
9984;DHT22;16737;50.932;6.780;2024-02-23T16:24:31;12.00;89.90
9984;DHT22;16737;50.932;6.780;2024-02-23T16:27:00;11.90;89.90
9984;DHT22;16737;50.932;6.780;2024-02-23T16:29:28;11.90;90.00
9984;DHT22;16737;50.932;6.780;2024-02-23T16:31:55;12.00;90.10
9984;DHT22;16737;50.932;6.780;2024-02-23T16:34:23;11.90;90.10
9984;DHT22;16737;50.932;6.780;2024-02-23T16:36:50;12.00;90.10
9984;DHT22;16737;50.932;6.780;2024-02-23T16:39:18;11.90;90.00
9984;DHT22;16737;50.932;6.780;2024-02-23T16:41:45;11.90;90.00
9984;DHT22;16737;50.932;6.780;2024-02-23T16:44:13;11.90;90.00
9984;DHT22;16737;50.932;6.780;2024-02-23T16:46:44;11.80;89.90
9984;DHT22;16737;50.932;6.780;2024-02-23T16:49:11;11.80;90.00
9984;DHT22;16737;50.932;6.780;2024-02-23T16:51:39;11.80;90.10
9984;DHT22;16737;50.932;6.780;2024-02-23T16:54:08;11.70;90.10
9984;DHT22;16737;50.932;6.780;2024-02-23T16:56:37;11.70;90.10
9984;DHT22;16737;50.932;6.780;2024-02-23T16:59:04;11.70;90.10
9984;DHT22;16737;50.932;6.780;2024-02-23T17:01:32;11.70;90.20
9984;DHT22;16737;50.932;6.780;2024-02-23T17:04:00;11.60;90.20
9984;DHT22;16737;50.932;6.780;2024-02-23T17:06:27;11.60;90.20
9984;DHT22;16737;50.932;6.780;2024-02-23T17:08:55;11.60;90.30
9984;DHT22;16737;50.932;6.780;2024-02-23T17:11:22;11.50;90.30
9984;DHT22;16737;50.932;6.780;2024-02-23T17:13:49;11.50;90.60
9984;DHT22;16737;50.932;6.780;2024-02-23T17:16:16;11.50;90.30
9984;DHT22;16737;50.932;6.780;2024-02-23T17:18:45;11.50;90.30
9984;DHT22;16737;50.932;6.780;2024-02-23T17:21:13;11.50;90.30
9984;DHT22;16737;50.932;6.780;2024-02-23T17:23:40;11.50;90.30
9984;DHT22;16737;50.932;6.780;2024-02-23T17:26:10;11.40;90.30
9984;DHT22;16737;50.932;6.780;2024-02-23T17:28:43;11.40;90.30
9984;DHT22;16737;50.932;6.780;2024-02-23T17:31:11;11.30;90.20
9984;DHT22;16737;50.932;6.780;2024-02-23T17:33:38;11.30;90.30
9984;DHT22;16737;50.932;6.780;2024-02-23T17:36:07;11.20;90.30
9984;DHT22;16737;50.932;6.780;2024-02-23T17:38:34;11.10;90.30
9984;DHT22;16737;50.932;6.780;2024-02-23T17:41:02;11.10;90.30
9984;DHT22;16737;50.932;6.780;2024-02-23T17:43:29;11.00;90.30
9984;DHT22;16737;50.932;6.780;2024-02-23T17:45:56;11.00;90.30
9984;DHT22;16737;50.932;6.780;2024-02-23T17:48:28;10.90;90.60
9984;DHT22;16737;50.932;6.780;2024-02-23T17:50:55;10.90;90.30
9984;DHT22;16737;50.932;6.780;2024-02-23T17:53:23;10.80;90.30
9984;DHT22;16737;50.932;6.780;2024-02-23T17:55:51;10.80;90.40
9984;DHT22;16737;50.932;6.780;2024-02-23T17:58:19;10.80;90.70
9984;DHT22;16737;50.932;6.780;2024-02-23T18:00:46;10.70;90.40
9984;DHT22;16737;50.932;6.780;2024-02-23T18:03:13;10.70;90.40
9984;DHT22;16737;50.932;6.780;2024-02-23T18:05:40;10.70;90.40
9984;DHT22;16737;50.932;6.780;2024-02-23T18:08:07;10.70;90.40
9984;DHT22;16737;50.932;6.780;2024-02-23T18:10:36;10.60;90.70
9984;DHT22;16737;50.932;6.780;2024-02-23T18:13:03;10.60;90.40
9984;DHT22;16737;50.932;6.780;2024-02-23T18:15:31;10.60;90.40
9984;DHT22;16737;50.932;6.780;2024-02-23T18:17:58;10.50;90.40
9984;DHT22;16737;50.932;6.780;2024-02-23T18:20:25;10.50;90.40
9984;DHT22;16737;50.932;6.780;2024-02-23T18:22:52;10.50;90.40
9984;DHT22;16737;50.932;6.780;2024-02-23T18:25:19;10.50;90.50
9984;DHT22;16737;50.932;6.780;2024-02-23T18:27:48;10.50;90.50
9984;DHT22;16737;50.932;6.780;2024-02-23T18:30:15;10.40;90.50
9984;DHT22;16737;50.932;6.780;2024-02-23T18:32:43;10.40;90.50
9984;DHT22;16737;50.932;6.780;2024-02-23T18:35:10;10.40;90.50
9984;DHT22;16737;50.932;6.780;2024-02-23T18:37:37;10.40;90.50
9984;DHT22;16737;50.932;6.780;2024-02-23T18:40:06;10.40;90.50
9984;DHT22;16737;50.932;6.780;2024-02-23T18:42:35;10.40;90.50
9984;DHT22;16737;50.932;6.780;2024-02-23T18:45:05;10.40;90.50
9984;DHT22;16737;50.932;6.780;2024-02-23T18:47:33;10.40;90.80
9984;DHT22;16737;50.932;6.780;2024-02-23T18:50:00;10.40;90.50
9984;DHT22;16737;50.932;6.780;2024-02-23T18:52:27;10.40;90.50
9984;DHT22;16737;50.932;6.780;2024-02-23T18:54:55;10.30;90.50
9984;DHT22;16737;50.932;6.780;2024-02-23T18:57:23;10.30;90.50
9984;DHT22;16737;50.932;6.780;2024-02-23T18:59:50;10.40;90.60
9984;DHT22;16737;50.932;6.780;2024-02-23T19:02:18;10.30;90.60
9984;DHT22;16737;50.932;6.780;2024-02-23T19:04:46;10.40;90.70
9984;DHT22;16737;50.932;6.780;2024-02-23T19:07:13;10.30;91.10
9984;DHT22;16737;50.932;6.780;2024-02-23T19:09:40;10.30;90.80
9984;DHT22;16737;50.932;6.780;2024-02-23T19:12:08;10.30;90.80
9984;DHT22;16737;50.932;6.780;2024-02-23T19:14:36;10.30;90.90
9984;DHT22;16737;50.932;6.780;2024-02-23T19:17:04;10.20;90.90
9984;DHT22;16737;50.932;6.780;2024-02-23T19:19:32;10.20;90.90
9984;DHT22;16737;50.932;6.780;2024-02-23T19:21:59;10.20;90.90
9984;DHT22;16737;50.932;6.780;2024-02-23T19:24:26;10.20;90.90
9984;DHT22;16737;50.932;6.780;2024-02-23T19:26:56;10.10;91.00
9984;DHT22;16737;50.932;6.780;2024-02-23T19:29:23;10.10;91.00
9984;DHT22;16737;50.932;6.780;2024-02-23T19:31:50;10.10;91.00
9984;DHT22;16737;50.932;6.780;2024-02-23T19:34:17;10.10;91.00
9984;DHT22;16737;50.932;6.780;2024-02-23T19:36:45;10.10;91.00
9984;DHT22;16737;50.932;6.780;2024-02-23T19:39:13;10.00;90.90
9984;DHT22;16737;50.932;6.780;2024-02-23T19:41:44;10.00;90.90
9984;DHT22;16737;50.932;6.780;2024-02-23T19:44:12;10.00;91.00
9984;DHT22;16737;50.932;6.780;2024-02-23T19:46:39;10.00;90.90
9984;DHT22;16737;50.932;6.780;2024-02-23T19:49:07;9.90;91.40
9984;DHT22;16737;50.932;6.780;2024-02-23T19:51:35;9.90;91.40
9984;DHT22;16737;50.932;6.780;2024-02-23T19:54:04;9.90;91.60
9984;DHT22;16737;50.932;6.780;2024-02-23T19:56:31;9.90;91.50
9984;DHT22;16737;50.932;6.780;2024-02-23T19:58:58;9.90;91.50
9984;DHT22;16737;50.932;6.780;2024-02-23T20:01:26;9.90;91.50
9984;DHT22;16737;50.932;6.780;2024-02-23T20:03:56;9.80;91.50
9984;DHT22;16737;50.932;6.780;2024-02-23T20:06:23;9.80;91.50
9984;DHT22;16737;50.932;6.780;2024-02-23T20:08:52;9.80;91.50
9984;DHT22;16737;50.932;6.780;2024-02-23T20:11:20;9.70;91.50
9984;DHT22;16737;50.932;6.780;2024-02-23T20:13:47;9.70;91.60
9984;DHT22;16737;50.932;6.780;2024-02-23T20:16:14;9.70;91.60
9984;DHT22;16737;50.932;6.780;2024-02-23T20:18:41;9.60;91.60
9984;DHT22;16737;50.932;6.780;2024-02-23T20:21:08;9.60;91.70
9984;DHT22;16737;50.932;6.780;2024-02-23T20:23:35;9.60;91.70
9984;DHT22;16737;50.932;6.780;2024-02-23T20:26:04;9.60;91.70
9984;DHT22;16737;50.932;6.780;2024-02-23T20:28:34;9.60;91.80
9984;DHT22;16737;50.932;6.780;2024-02-23T20:31:01;9.50;91.80
9984;DHT22;16737;50.932;6.780;2024-02-23T20:33:31;9.50;91.80
9984;DHT22;16737;50.932;6.780;2024-02-23T20:36:06;9.40;91.90
9984;DHT22;16737;50.932;6.780;2024-02-23T20:38:33;9.40;91.90
9984;DHT22;16737;50.932;6.780;2024-02-23T20:41:00;9.40;92.00
9984;DHT22;16737;50.932;6.780;2024-02-23T20:43:27;9.30;92.00
9984;DHT22;16737;50.932;6.780;2024-02-23T20:45:56;9.30;92.10
9984;DHT22;16737;50.932;6.780;2024-02-23T20:48:23;9.30;92.10
9984;DHT22;16737;50.932;6.780;2024-02-23T20:50:51;9.20;92.10
9984;DHT22;16737;50.932;6.780;2024-02-23T20:53:18;9.20;92.10
9984;DHT22;16737;50.932;6.780;2024-02-23T20:55:45;9.20;92.20
9984;DHT22;16737;50.932;6.780;2024-02-23T20:58:12;9.20;92.50
9984;DHT22;16737;50.932;6.780;2024-02-23T21:00:39;9.20;92.20
9984;DHT22;16737;50.932;6.780;2024-02-23T21:03:07;9.20;92.20
9984;DHT22;16737;50.932;6.780;2024-02-23T21:05:34;9.20;92.30
9984;DHT22;16737;50.932;6.780;2024-02-23T21:08:03;9.20;92.20
9984;DHT22;16737;50.932;6.780;2024-02-23T21:10:31;9.10;92.20
9984;DHT22;16737;50.932;6.780;2024-02-23T21:12:58;9.10;92.20
9984;DHT22;16737;50.932;6.780;2024-02-23T21:15:26;9.10;92.20
9984;DHT22;16737;50.932;6.780;2024-02-23T21:17:53;9.10;92.60
9984;DHT22;16737;50.932;6.780;2024-02-23T21:20:24;9.00;92.30
9984;DHT22;16737;50.932;6.780;2024-02-23T21:22:52;9.00;92.40
9984;DHT22;16737;50.932;6.780;2024-02-23T21:25:21;9.00;92.40
9984;DHT22;16737;50.932;6.780;2024-02-23T21:27:49;9.00;92.40
9984;DHT22;16737;50.932;6.780;2024-02-23T21:30:16;9.00;92.40
9984;DHT22;16737;50.932;6.780;2024-02-23T21:32:43;9.00;92.40
9984;DHT22;16737;50.932;6.780;2024-02-23T21:35:10;8.90;92.40
9984;DHT22;16737;50.932;6.780;2024-02-23T21:37:39;8.90;92.40
9984;DHT22;16737;50.932;6.780;2024-02-23T21:40:08;8.90;92.40
9984;DHT22;16737;50.932;6.780;2024-02-23T21:42:36;8.90;92.50
9984;DHT22;16737;50.932;6.780;2024-02-23T21:45:04;8.90;92.40
9984;DHT22;16737;50.932;6.780;2024-02-23T21:47:31;8.90;92.50
9984;DHT22;16737;50.932;6.780;2024-02-23T21:49:58;8.80;92.50
9984;DHT22;16737;50.932;6.780;2024-02-23T21:52:25;8.80;92.50
9984;DHT22;16737;50.932;6.780;2024-02-23T21:54:54;8.80;92.50
9984;DHT22;16737;50.932;6.780;2024-02-23T21:57:23;8.80;92.60
9984;DHT22;16737;50.932;6.780;2024-02-23T21:59:50;8.80;92.50
9984;DHT22;16737;50.932;6.780;2024-02-23T22:02:20;8.80;92.60
9984;DHT22;16737;50.932;6.780;2024-02-23T22:04:47;8.70;92.60
9984;DHT22;16737;50.932;6.780;2024-02-23T22:07:14;8.70;92.60
9984;DHT22;16737;50.932;6.780;2024-02-23T22:09:43;8.70;92.60
9984;DHT22;16737;50.932;6.780;2024-02-23T22:12:13;8.70;92.60
9984;DHT22;16737;50.932;6.780;2024-02-23T22:14:41;8.70;93.00
9984;DHT22;16737;50.932;6.780;2024-02-23T22:17:08;8.70;92.70
9984;DHT22;16737;50.932;6.780;2024-02-23T22:19:35;8.70;92.80
9984;DHT22;16737;50.932;6.780;2024-02-23T22:22:02;8.70;92.80
9984;DHT22;16737;50.932;6.780;2024-02-23T22:24:29;8.70;92.80
9984;DHT22;16737;50.932;6.780;2024-02-23T22:26:56;8.70;92.90
9984;DHT22;16737;50.932;6.780;2024-02-23T22:29:28;8.70;92.90
9984;DHT22;16737;50.932;6.780;2024-02-23T22:31:55;8.70;93.00
9984;DHT22;16737;50.932;6.780;2024-02-23T22:34:23;8.70;93.00
9984;DHT22;16737;50.932;6.780;2024-02-23T22:36:52;8.70;93.00
9984;DHT22;16737;50.932;6.780;2024-02-23T22:39:19;8.70;93.00
9984;DHT22;16737;50.932;6.780;2024-02-23T22:41:46;8.70;93.30
9984;DHT22;16737;50.932;6.780;2024-02-23T22:44:13;8.70;93.00
9984;DHT22;16737;50.932;6.780;2024-02-23T22:46:41;8.70;92.90
9984;DHT22;16737;50.932;6.780;2024-02-23T22:49:08;8.70;93.00
9984;DHT22;16737;50.932;6.780;2024-02-23T22:51:40;8.70;92.90
9984;DHT22;16737;50.932;6.780;2024-02-23T22:54:08;8.70;93.00
9984;DHT22;16737;50.932;6.780;2024-02-23T22:56:36;8.70;92.90
9984;DHT22;16737;50.932;6.780;2024-02-23T22:59:05;8.70;92.90
9984;DHT22;16737;50.932;6.780;2024-02-23T23:01:35;8.70;92.90
9984;DHT22;16737;50.932;6.780;2024-02-23T23:04:04;8.70;93.00
9984;DHT22;16737;50.932;6.780;2024-02-23T23:06:31;8.60;92.90
9984;DHT22;16737;50.932;6.780;2024-02-23T23:09:01;8.60;92.90
9984;DHT22;16737;50.932;6.780;2024-02-23T23:11:34;8.60;92.90
9984;DHT22;16737;50.932;6.780;2024-02-23T23:14:01;8.60;93.00
9984;DHT22;16737;50.932;6.780;2024-02-23T23:16:29;8.60;93.00
9984;DHT22;16737;50.932;6.780;2024-02-23T23:18:56;8.60;93.00
9984;DHT22;16737;50.932;6.780;2024-02-23T23:21:25;8.60;93.00
9984;DHT22;16737;50.932;6.780;2024-02-23T23:23:52;8.60;93.00
9984;DHT22;16737;50.932;6.780;2024-02-23T23:26:19;8.60;93.00
9984;DHT22;16737;50.932;6.780;2024-02-23T23:28:47;8.50;93.00
9984;DHT22;16737;50.932;6.780;2024-02-23T23:31:15;8.50;93.00
9984;DHT22;16737;50.932;6.780;2024-02-23T23:33:43;8.50;93.10
9984;DHT22;16737;50.932;6.780;2024-02-23T23:36:10;8.50;93.10
9984;DHT22;16737;50.932;6.780;2024-02-23T23:38:40;8.50;93.10
9984;DHT22;16737;50.932;6.780;2024-02-23T23:41:08;8.50;93.20
9984;DHT22;16737;50.932;6.780;2024-02-23T23:43:35;8.50;93.20
9984;DHT22;16737;50.932;6.780;2024-02-23T23:46:02;8.50;93.20
9984;DHT22;16737;50.932;6.780;2024-02-23T23:48:30;8.50;93.20
9984;DHT22;16737;50.932;6.780;2024-02-23T23:51:00;8.50;93.30
9984;DHT22;16737;50.932;6.780;2024-02-23T23:53:27;8.50;93.30
9984;DHT22;16737;50.932;6.780;2024-02-23T23:55:57;8.50;93.20
9984;DHT22;16737;50.932;6.780;2024-02-23T23:58:24;8.50;93.30
